createdAt,value
2019-02-11T00:01:08.362Z,5.40
2019-02-11T00:03:38.259Z,5.40
2019-02-11T00:06:38.097Z,5.40
2019-02-11T00:09:09.387Z,5.40
2019-02-11T00:11:39.123Z,5.40
2019-02-11T00:14:08.071Z,5.30
2019-02-11T00:16:36.900Z,5.30
2019-02-11T00:19:05.831Z,5.30
2019-02-11T00:21:35.072Z,5.30
2019-02-11T00:24:04.410Z,5.30
2019-02-11T00:26:34.954Z,5.30
2019-02-11T00:29:04.246Z,5.30
2019-02-11T00:31:33.153Z,5.30
2019-02-11T00:34:05.997Z,5.40
2019-02-11T00:36:35.716Z,5.40
2019-02-11T00:39:07.071Z,5.40
2019-02-11T00:41:36.525Z,5.40
2019-02-11T00:44:05.764Z,5.40
2019-02-11T00:46:34.734Z,5.40
2019-02-11T00:49:04.328Z,5.40
2019-02-11T00:51:33.213Z,5.30
2019-02-11T00:54:02.562Z,5.30
2019-02-11T00:56:31.481Z,5.30
2019-02-11T00:59:00.401Z,5.40
2019-02-11T01:01:29.589Z,5.40
2019-02-11T01:03:58.523Z,5.40
2019-02-11T01:06:27.483Z,5.40
2019-02-11T01:08:56.429Z,5.40
2019-02-11T01:11:28.865Z,5.40
2019-02-11T01:13:57.767Z,5.30
2019-02-11T01:16:26.600Z,5.40
2019-02-11T01:18:55.672Z,5.40
2019-02-11T01:21:24.580Z,5.40
2019-02-11T01:23:53.682Z,5.40
2019-02-11T01:26:23.648Z,5.40
2019-02-11T01:28:52.876Z,5.40
2019-02-11T01:31:24.926Z,5.40
2019-02-11T01:33:54.168Z,5.40
2019-02-11T01:36:23.134Z,5.40
2019-02-11T01:38:52.421Z,5.40
2019-02-11T01:41:21.428Z,5.50
2019-02-11T01:44:01.163Z,5.40
2019-02-11T01:46:21.354Z,5.40
2019-02-11T01:49:02.983Z,5.50
2019-02-11T01:51:35.302Z,5.50
2019-02-11T01:54:04.326Z,5.50
2019-02-11T01:56:38.230Z,5.60
2019-02-11T01:59:07.458Z,5.60
2019-02-11T02:01:37.563Z,5.60
2019-02-11T02:04:07.123Z,5.60
2019-02-11T02:06:37.197Z,5.60
2019-02-11T02:09:08.157Z,5.60
2019-02-11T02:11:36.951Z,5.60
2019-02-11T02:14:06.166Z,5.50
2019-02-11T02:16:35.997Z,5.50
2019-02-11T02:19:05.007Z,5.50
2019-02-11T02:21:34.171Z,5.50
2019-02-11T02:24:03.315Z,5.50
2019-02-11T02:26:39.419Z,5.50
2019-02-11T02:29:08.327Z,5.50
2019-02-11T02:31:37.584Z,5.50
2019-02-11T02:34:08.210Z,5.40
2019-02-11T02:36:38.158Z,5.40
2019-02-11T02:39:07.037Z,5.40
2019-02-11T02:41:39.990Z,5.40
2019-02-11T02:44:09.455Z,5.40
2019-02-11T02:46:38.480Z,5.40
2019-02-11T02:49:07.705Z,5.30
2019-02-11T02:51:36.940Z,5.30
2019-02-11T02:54:05.822Z,5.30
2019-02-11T02:56:34.763Z,5.30
2019-02-11T02:59:03.739Z,5.30
2019-02-11T03:01:32.645Z,5.30
2019-02-11T03:04:03.388Z,5.20
2019-02-11T03:06:32.318Z,5.20
2019-02-11T03:09:01.503Z,5.20
2019-02-11T03:11:30.383Z,5.20
2019-02-11T03:14:56.953Z,5.10
2019-02-11T03:17:26.217Z,5.10
2019-02-11T03:19:55.143Z,5.20
2019-02-11T03:22:26.095Z,5.20
2019-02-11T03:24:55.290Z,5.30
2019-02-11T03:27:24.526Z,5.40
2019-02-11T03:29:53.750Z,5.40
2019-02-11T03:32:23.178Z,5.50
2019-02-11T03:34:53.352Z,5.50
2019-02-11T03:37:22.283Z,5.60
2019-02-11T03:39:51.350Z,5.60
2019-02-11T03:42:21.660Z,5.60
2019-02-11T03:44:50.612Z,5.60
2019-02-11T03:47:22.798Z,5.60
2019-02-11T03:49:52.086Z,5.60
2019-02-11T03:52:21.935Z,5.50
2019-02-11T03:54:51.124Z,5.50
2019-02-11T03:57:20.351Z,5.40
2019-02-11T03:59:49.232Z,5.30
2019-02-11T04:02:19.000Z,5.30
2019-02-11T04:04:49.507Z,5.30
2019-02-11T04:07:18.543Z,5.30
2019-02-11T04:09:47.363Z,5.30
2019-02-11T04:12:16.488Z,5.20
2019-02-11T04:14:45.331Z,5.20
2019-02-11T04:17:14.419Z,5.20
2019-02-11T04:19:46.079Z,5.20
2019-02-11T04:22:15.145Z,5.20
2019-02-11T04:24:47.420Z,5.20
2019-02-11T04:27:16.370Z,5.20
2019-02-11T04:29:45.747Z,5.20
2019-02-11T04:32:14.720Z,5.30
2019-02-11T04:34:43.902Z,5.30
2019-02-11T04:37:13.204Z,5.30
2019-02-11T04:39:42.855Z,5.20
2019-02-11T04:42:11.768Z,5.20
2019-02-11T04:44:40.979Z,5.20
2019-02-11T04:47:10.331Z,5.10
2019-02-11T04:49:39.461Z,5.10
2019-02-11T04:52:08.620Z,5.10
2019-02-11T04:54:40.494Z,5.10
2019-02-11T04:57:10.055Z,5.10
2019-02-11T04:59:45.986Z,5.10
2019-02-11T05:02:14.911Z,5.10
2019-02-11T05:04:48.550Z,5.10
2019-02-11T05:07:17.747Z,5.10
2019-02-11T05:09:47.163Z,5.10
2019-02-11T05:15:58.844Z,5.00
2019-02-11T05:18:27.982Z,5.10
2019-02-11T05:20:58.692Z,5.10
2019-02-11T05:23:28.553Z,5.10
2019-02-11T05:25:58.003Z,5.10
2019-02-11T05:28:26.979Z,5.00
2019-02-11T05:33:30.975Z,5.00
2019-02-11T05:36:00.245Z,5.00
2019-02-11T05:38:33.253Z,5.00
2019-02-11T05:41:02.867Z,5.00
2019-02-11T05:43:31.791Z,4.90
2019-02-11T05:46:03.278Z,4.90
2019-02-11T05:48:38.668Z,4.90
2019-02-11T05:51:07.627Z,4.90
2019-02-11T05:53:37.179Z,4.80
2019-02-11T05:56:06.122Z,4.90
2019-02-11T05:59:05.116Z,4.90
2019-02-11T06:01:34.026Z,4.90
2019-02-11T06:04:03.214Z,5.00
2019-02-11T06:06:32.421Z,5.10
2019-02-11T06:09:01.524Z,5.10
2019-02-11T06:11:30.434Z,5.10
2019-02-11T06:14:02.526Z,5.10
2019-02-11T06:16:32.306Z,5.10
2019-02-11T06:19:01.256Z,5.10
2019-02-11T06:21:30.126Z,5.10
2019-02-11T06:23:59.229Z,5.10
2019-02-11T06:26:28.548Z,5.10
2019-02-11T06:28:57.929Z,5.10
2019-02-11T06:31:29.820Z,5.10
2019-02-11T06:33:58.719Z,5.10
2019-02-11T06:36:27.678Z,5.10
2019-02-11T06:38:56.659Z,5.10
2019-02-11T06:41:25.605Z,5.10
2019-02-11T06:43:54.504Z,5.10
2019-02-11T06:46:29.184Z,5.20
2019-02-11T06:48:58.597Z,5.20
2019-02-11T06:51:35.502Z,5.20
2019-02-11T06:54:04.408Z,5.10
2019-02-11T06:56:33.379Z,5.10
2019-02-11T06:59:03.146Z,5.20
2019-02-11T07:01:32.167Z,5.20
2019-02-11T07:04:01.055Z,5.20
2019-02-11T07:06:30.010Z,5.20
2019-02-11T07:08:59.019Z,5.20
2019-02-11T07:11:30.494Z,5.10
2019-02-11T07:14:01.003Z,5.10
2019-02-11T07:16:30.217Z,5.10
2019-02-11T07:19:02.785Z,5.10
2019-02-11T07:21:31.765Z,5.10
2019-02-11T07:24:03.790Z,5.00
2019-02-11T07:26:32.694Z,5.00
2019-02-11T07:31:37.493Z,5.00
2019-02-11T07:34:09.145Z,5.10
2019-02-11T07:36:37.978Z,5.10
2019-02-11T07:39:09.559Z,5.10
2019-02-11T07:41:48.377Z,5.10
2019-02-11T07:44:21.412Z,5.10
2019-02-11T07:46:54.562Z,5.10
2019-02-11T07:49:23.560Z,5.10
2019-02-11T07:51:52.579Z,5.10
2019-02-11T07:54:21.454Z,5.10
2019-02-11T07:57:02.563Z,5.10
2019-02-11T07:59:32.033Z,5.10
2019-02-11T08:02:01.418Z,5.20
2019-02-11T08:04:31.070Z,5.20
2019-02-11T08:07:00.255Z,5.20
2019-02-11T08:09:29.188Z,5.20
2019-02-11T08:11:58.086Z,5.30
2019-02-11T08:14:27.053Z,5.40
2019-02-11T08:16:55.966Z,5.40
2019-02-11T08:19:24.948Z,5.40
2019-02-11T08:21:53.963Z,5.50
2019-02-11T08:24:22.924Z,5.50
2019-02-11T08:26:52.176Z,5.60
2019-02-11T08:29:21.474Z,5.70
2019-02-11T08:31:53.659Z,5.80
2019-02-11T08:34:22.922Z,6.00
2019-02-11T08:36:52.526Z,6.10
2019-02-11T08:39:24.708Z,6.30
2019-02-11T08:41:53.744Z,6.40
2019-02-11T08:44:25.880Z,6.50
2019-02-11T08:46:54.928Z,6.60
2019-02-11T08:49:23.940Z,6.60
2019-02-11T08:51:53.918Z,6.70
2019-02-11T08:54:23.384Z,6.70
2019-02-11T08:56:53.201Z,6.70
2019-02-11T08:59:22.455Z,6.60
2019-02-11T09:01:51.897Z,6.60
2019-02-11T09:04:27.284Z,6.60
2019-02-11T09:06:56.178Z,6.50
2019-02-11T09:09:25.088Z,6.50
2019-02-11T09:11:54.048Z,6.50
2019-02-11T09:14:22.924Z,6.60
2019-02-11T09:16:56.178Z,6.60
2019-02-11T09:19:25.199Z,6.70
2019-02-11T09:21:56.604Z,6.80
2019-02-11T09:24:25.567Z,6.80
2019-02-11T09:26:58.163Z,6.60
2019-02-11T09:29:27.530Z,6.40
2019-02-11T09:31:57.027Z,6.20
2019-02-11T09:34:26.344Z,6.10
2019-02-11T09:36:55.350Z,6.10
2019-02-11T09:39:24.391Z,6.10
2019-02-11T09:41:53.528Z,6.10
2019-02-11T09:44:29.729Z,6.00
2019-02-11T09:46:58.269Z,6.00
2019-02-11T09:49:27.501Z,6.10
2019-02-11T09:54:32.398Z,6.20
2019-02-11T09:57:01.440Z,6.20
2019-02-11T09:59:30.445Z,6.30
2019-02-11T10:01:59.538Z,6.40
2019-02-11T10:04:29.584Z,6.40
2019-02-11T10:07:00.406Z,6.40
2019-02-11T10:09:32.368Z,6.50
2019-02-11T10:12:07.052Z,6.50
2019-02-11T10:14:39.293Z,6.60
2019-02-11T10:17:08.379Z,6.70
2019-02-11T10:19:41.470Z,6.70
2019-02-11T10:22:10.597Z,6.80
2019-02-11T10:24:42.565Z,6.90
2019-02-11T10:27:11.859Z,7.00
2019-02-11T10:29:40.681Z,7.00
2019-02-11T10:32:10.773Z,7.10
2019-02-11T10:34:39.691Z,7.10
2019-02-11T10:37:12.032Z,7.10
2019-02-11T10:39:41.215Z,7.10
2019-02-11T10:42:10.878Z,7.30
2019-02-11T10:44:40.075Z,7.40
2019-02-11T10:47:09.075Z,7.60
2019-02-11T10:49:38.275Z,7.80
2019-02-11T10:52:07.319Z,7.90
2019-02-11T10:54:36.234Z,7.90
2019-02-11T10:57:05.230Z,7.80
2019-02-11T10:59:34.214Z,7.70
2019-02-11T11:02:03.496Z,7.80
2019-02-11T11:04:32.492Z,7.90
2019-02-11T11:07:01.439Z,7.90
2019-02-11T11:09:31.388Z,7.90
2019-02-11T11:12:00.761Z,7.90
2019-02-11T11:14:29.677Z,7.90
2019-02-11T11:16:58.612Z,7.90
2019-02-11T11:19:27.862Z,7.90
2019-02-11T11:21:57.335Z,8.00
2019-02-11T11:24:26.582Z,8.10
2019-02-11T11:26:57.416Z,8.10
2019-02-11T11:29:26.546Z,8.00
2019-02-11T11:31:55.506Z,8.00
2019-02-11T11:34:24.426Z,8.00
2019-02-11T11:36:53.736Z,8.00
2019-02-11T11:39:30.277Z,8.10
2019-02-11T11:41:59.472Z,8.10
2019-02-11T11:44:33.695Z,8.10
2019-02-11T11:47:03.092Z,8.20
2019-02-11T11:49:32.029Z,8.10
2019-02-11T11:52:01.041Z,8.10
2019-02-11T11:54:30.114Z,8.10
2019-02-11T11:56:59.507Z,8.20
2019-02-11T11:59:29.131Z,8.20
2019-02-11T12:02:01.178Z,8.20
2019-02-11T12:04:31.673Z,8.30
2019-02-11T12:07:00.652Z,8.30
2019-02-11T12:09:32.773Z,8.30
2019-02-11T12:12:01.684Z,8.40
2019-02-11T12:14:31.255Z,8.40
2019-02-11T12:17:02.871Z,8.60
2019-02-11T12:19:35.628Z,8.70
2019-02-11T12:22:12.887Z,8.70
2019-02-11T12:24:40.094Z,8.70
2019-02-11T12:27:13.960Z,8.60
2019-02-11T12:29:43.960Z,8.40
2019-02-11T12:32:12.944Z,8.30
2019-02-11T12:34:44.858Z,8.20
2019-02-11T12:37:14.057Z,8.10
2019-02-11T12:39:43.107Z,8.10
2019-02-11T12:42:12.134Z,8.00
2019-02-11T12:44:41.086Z,7.90
2019-02-11T12:47:13.853Z,8.00
2019-02-11T12:49:40.762Z,8.00
2019-02-11T12:52:10.086Z,8.10
2019-02-11T12:54:39.039Z,8.20
2019-02-11T12:59:45.869Z,8.30
2019-02-11T13:02:15.032Z,8.20
2019-02-11T13:04:44.031Z,8.30
2019-02-11T13:07:13.043Z,8.30
2019-02-11T13:09:43.465Z,8.30
2019-02-11T13:12:15.601Z,8.20
2019-02-11T13:14:45.294Z,8.20
2019-02-11T13:17:18.361Z,8.20
2019-02-11T13:19:45.799Z,8.30
2019-02-11T13:22:15.226Z,8.30
2019-02-11T13:24:44.555Z,8.20
2019-02-11T13:27:15.130Z,8.30
2019-02-11T13:29:44.050Z,8.20
2019-02-11T13:32:16.917Z,8.20
2019-02-11T13:34:46.170Z,8.20
2019-02-11T13:37:15.457Z,8.10
2019-02-11T13:39:44.795Z,8.10
2019-02-11T13:42:14.142Z,8.20
2019-02-11T13:44:46.068Z,8.30
2019-02-11T13:47:15.221Z,8.20
2019-02-11T13:52:20.401Z,8.20
2019-02-11T13:54:49.540Z,8.10
2019-02-11T13:57:18.636Z,8.10
2019-02-11T13:59:47.823Z,8.20
2019-02-11T14:02:17.135Z,8.30
2019-02-11T14:04:46.170Z,8.30
2019-02-11T14:07:15.273Z,8.40
2019-02-11T14:09:44.648Z,8.50
2019-02-11T14:12:14.167Z,8.50
2019-02-11T14:14:43.072Z,8.60
2019-02-11T14:17:12.133Z,8.60
2019-02-11T14:19:41.462Z,8.60
2019-02-11T14:22:11.363Z,8.70
2019-02-11T14:24:40.327Z,8.70
2019-02-11T14:27:09.780Z,8.80
2019-02-11T14:29:42.051Z,8.90
2019-02-11T14:32:11.127Z,8.80
2019-02-11T14:34:44.148Z,8.80
2019-02-11T14:37:13.071Z,8.80
2019-02-11T14:39:43.257Z,8.70
2019-02-11T14:42:15.571Z,8.60
2019-02-11T14:44:45.122Z,8.60
2019-02-11T14:47:14.170Z,8.50
2019-02-11T14:49:43.033Z,8.40
2019-02-11T14:52:18.365Z,8.40
2019-02-11T14:54:51.376Z,8.30
2019-02-11T14:57:20.744Z,8.20
2019-02-11T14:59:49.796Z,8.20
2019-02-11T15:02:18.947Z,8.10
2019-02-11T15:04:48.191Z,8.10
2019-02-11T15:07:17.115Z,8.00
2019-02-11T15:09:49.095Z,7.90
2019-02-11T15:12:18.188Z,7.90
2019-02-11T15:14:47.301Z,7.90
2019-02-11T15:17:18.415Z,7.80
2019-02-11T15:19:48.148Z,7.80
2019-02-11T15:22:17.249Z,7.80
2019-02-11T15:24:46.237Z,7.70
2019-02-11T15:27:17.726Z,7.60
2019-02-11T15:29:46.702Z,7.60
2019-02-11T15:32:15.980Z,7.60
2019-02-11T15:34:45.675Z,7.60
2019-02-11T15:37:14.667Z,7.60
2019-02-11T15:39:43.659Z,7.50
2019-02-11T15:42:12.909Z,7.50
2019-02-11T15:44:41.990Z,7.40
2019-02-11T15:47:11.806Z,7.40
2019-02-11T15:49:41.196Z,7.40
2019-02-11T15:52:10.240Z,7.40
2019-02-11T15:54:39.600Z,7.40
2019-02-11T15:57:11.003Z,7.30
2019-02-11T15:59:40.363Z,7.30
2019-02-11T16:02:09.646Z,7.30
2019-02-11T16:04:39.087Z,7.20
2019-02-11T16:07:08.465Z,7.10
2019-02-11T16:09:37.660Z,7.10
2019-02-11T16:12:09.700Z,7.00
2019-02-11T16:14:39.689Z,6.90
2019-02-11T16:17:08.704Z,6.90
2019-02-11T16:19:37.970Z,6.80
2019-02-11T16:22:09.236Z,6.80
2019-02-11T16:24:38.602Z,6.70
2019-02-11T16:27:07.979Z,6.70
2019-02-11T16:29:38.607Z,6.60
2019-02-11T16:32:07.546Z,6.60
2019-02-11T16:34:40.537Z,6.60
2019-02-11T16:37:09.614Z,6.50
2019-02-11T16:39:38.737Z,6.40
2019-02-11T16:42:08.188Z,6.40
2019-02-11T16:44:45.861Z,6.30
2019-02-11T16:47:15.803Z,6.20
2019-02-11T16:49:48.049Z,6.10
2019-02-11T16:52:23.541Z,6.10
2019-02-11T16:54:55.640Z,6.00
2019-02-11T16:57:24.896Z,6.00
2019-02-11T16:59:55.582Z,5.90
2019-02-11T17:02:24.544Z,5.90
2019-02-11T17:04:53.811Z,5.80
2019-02-11T17:07:26.278Z,5.80
2019-02-11T17:09:55.584Z,5.70
2019-02-11T17:12:24.586Z,5.70
2019-02-11T17:14:53.630Z,5.60
2019-02-11T17:17:22.663Z,5.50
2019-02-11T17:19:55.353Z,5.50
2019-02-11T17:22:27.797Z,5.40
2019-02-11T17:24:57.184Z,5.30
2019-02-11T17:27:27.530Z,5.20
2019-02-11T17:29:56.936Z,5.10
2019-02-11T17:32:26.586Z,5.10
2019-02-11T17:34:56.845Z,5.10
2019-02-11T17:37:26.258Z,5.00
2019-02-11T17:39:56.031Z,5.00
2019-02-11T17:42:25.610Z,5.00
2019-02-11T17:44:54.674Z,4.90
2019-02-11T17:47:23.965Z,4.80
2019-02-11T17:49:55.094Z,4.80
2019-02-11T17:52:25.881Z,4.70
2019-02-11T17:54:56.335Z,4.70
2019-02-11T17:57:25.921Z,4.70
2019-02-11T17:59:56.139Z,4.60
2019-02-11T18:02:28.401Z,4.60
2019-02-11T18:04:56.751Z,4.60
2019-02-11T18:07:26.540Z,4.60
2019-02-11T18:09:55.818Z,4.50
2019-02-11T18:12:24.913Z,4.50
2019-02-11T18:14:54.120Z,4.50
2019-02-11T18:17:24.612Z,4.50
2019-02-11T18:19:54.439Z,4.50
2019-02-11T18:22:23.749Z,4.50
2019-02-11T18:24:53.191Z,4.50
2019-02-11T18:27:22.620Z,4.40
2019-02-11T18:29:52.387Z,4.40
2019-02-11T18:32:22.360Z,4.50
2019-02-11T18:34:51.392Z,4.40
2019-02-11T18:37:23.637Z,4.40
2019-02-11T18:39:52.743Z,4.40
2019-02-11T18:42:21.794Z,4.30
2019-02-11T18:44:53.671Z,4.30
2019-02-11T18:47:23.576Z,4.30
2019-02-11T18:49:53.688Z,4.30
2019-02-11T18:52:23.179Z,4.20
2019-02-11T18:54:52.580Z,4.20
2019-02-11T18:57:21.891Z,4.30
2019-02-11T18:59:50.882Z,4.20
2019-02-11T19:02:20.392Z,4.20
2019-02-11T19:04:49.664Z,4.20
2019-02-11T19:07:22.560Z,4.20
2019-02-11T19:09:51.768Z,4.20
2019-02-11T19:12:22.552Z,4.20
2019-02-11T19:14:51.717Z,4.20
2019-02-11T19:17:24.776Z,4.20
2019-02-11T19:19:54.278Z,4.20
2019-02-11T19:22:26.443Z,4.20
2019-02-11T19:24:55.503Z,4.20
2019-02-11T19:27:28.417Z,4.20
2019-02-11T19:29:57.575Z,4.20
2019-02-11T19:32:27.210Z,4.10
2019-02-11T19:34:57.340Z,4.10
2019-02-11T19:37:26.454Z,4.10
2019-02-11T19:39:59.168Z,4.10
2019-02-11T19:42:30.691Z,4.10
2019-02-11T19:45:00.344Z,4.10
2019-02-11T19:47:30.038Z,4.00
2019-02-11T19:49:59.188Z,4.00
2019-02-11T19:52:31.859Z,4.00
2019-02-11T19:55:04.235Z,4.00
2019-02-11T19:57:33.745Z,4.10
2019-02-11T20:00:12.149Z,4.00
2019-02-11T20:02:43.057Z,4.00
2019-02-11T20:05:15.149Z,4.00
2019-02-11T20:07:44.294Z,4.00
2019-02-11T20:10:14.258Z,3.90
2019-02-11T20:12:46.458Z,3.90
2019-02-11T20:15:17.742Z,4.00
2019-02-11T20:20:22.179Z,4.00
2019-02-11T20:22:51.920Z,3.90
2019-02-11T20:25:21.056Z,3.90
2019-02-11T20:27:50.103Z,3.90
2019-02-11T20:30:21.732Z,3.90
2019-02-11T20:32:51.244Z,3.90
2019-02-11T20:35:22.236Z,3.90
2019-02-11T20:37:52.336Z,3.90
2019-02-11T20:40:22.816Z,3.90
2019-02-11T20:42:52.023Z,3.90
2019-02-11T20:45:24.352Z,3.90
2019-02-11T20:47:53.550Z,3.90
2019-02-11T20:50:22.703Z,4.00
2019-02-11T20:52:54.758Z,4.00
2019-02-11T20:55:24.279Z,3.90
2019-02-11T20:57:57.897Z,3.90
2019-02-11T21:00:27.122Z,3.90
2019-02-11T21:02:56.650Z,3.80
2019-02-11T21:05:26.520Z,3.90
2019-02-11T21:07:55.963Z,3.80
2019-02-11T21:10:25.223Z,3.80
2019-02-11T21:12:55.092Z,3.70
2019-02-11T21:15:27.419Z,3.70
2019-02-11T21:17:56.463Z,3.80
2019-02-11T21:21:04.920Z,3.80
2019-02-11T21:23:35.810Z,3.90
2019-02-11T21:26:05.019Z,3.90
2019-02-11T21:28:34.303Z,3.90
2019-02-11T21:31:03.196Z,3.90
2019-02-11T21:33:33.336Z,3.80
2019-02-11T21:36:04.651Z,3.90
2019-02-11T21:38:33.863Z,3.90
2019-02-11T21:41:02.921Z,3.80
2019-02-11T21:43:32.856Z,3.80
2019-02-11T21:46:02.158Z,3.80
2019-02-11T21:48:31.235Z,3.80
2019-02-11T21:51:00.421Z,3.70
2019-02-11T21:53:29.570Z,3.70
2019-02-11T21:55:59.353Z,3.60
2019-02-11T21:58:28.425Z,3.60
2019-02-11T22:01:04.573Z,3.60
2019-02-11T22:03:34.490Z,3.60
2019-02-11T22:06:03.579Z,3.60
2019-02-11T22:08:33.407Z,3.60
2019-02-11T22:11:03.258Z,3.60
2019-02-11T22:13:32.191Z,3.50
2019-02-11T22:16:01.198Z,3.50
2019-02-11T22:18:30.829Z,3.50
2019-02-11T22:21:03.035Z,3.40
2019-02-11T22:23:31.993Z,3.30
2019-02-11T22:28:36.004Z,3.10
2019-02-11T22:31:05.093Z,3.10
2019-02-11T22:33:34.055Z,3.10
2019-02-11T22:36:04.111Z,3.20
2019-02-11T22:38:33.028Z,3.10
2019-02-11T22:41:02.000Z,3.20
2019-02-11T22:43:32.329Z,3.20
2019-02-11T22:46:01.247Z,3.20
2019-02-11T22:48:33.469Z,3.30
2019-02-11T22:51:03.544Z,3.30
2019-02-11T22:53:32.799Z,3.30
2019-02-11T22:56:01.897Z,3.30
2019-02-11T22:59:04.530Z,3.30
2019-02-11T23:01:35.215Z,3.30
2019-02-11T23:04:10.332Z,3.30
2019-02-11T23:06:39.302Z,3.20
2019-02-11T23:09:11.966Z,3.10
2019-02-11T23:11:42.881Z,3.10
2019-02-11T23:14:12.563Z,3.00
2019-02-11T23:16:41.588Z,3.00
2019-02-11T23:19:40.705Z,2.90
2019-02-11T23:22:10.405Z,2.80
2019-02-11T23:24:40.483Z,2.80
2019-02-11T23:27:09.739Z,2.70
2019-02-11T23:29:39.046Z,2.60
2019-02-11T23:32:08.646Z,2.60
2019-02-11T23:34:38.549Z,2.50
2019-02-11T23:37:07.688Z,2.40
2019-02-11T23:42:24.919Z,2.30
2019-02-11T23:44:54.185Z,2.30
2019-02-11T23:47:23.120Z,2.30
2019-02-11T23:49:52.046Z,2.20
2019-02-11T23:52:21.238Z,2.20
2019-02-11T23:54:50.077Z,2.20
2019-02-11T23:57:18.955Z,2.20
2019-02-11T23:59:47.986Z,2.10
